4ème VOIE VERTE ROTARIENNE - 02/10/2010

5 Km


Pl Do. Nom - Surname Prénom - Name S-Cat /cat Club - Team TEMPS - Time Km/h /sx
1 208 DARBAS SEBASTIEN MSE 1 JSP 00:18:04 16,6 1
2 391 RAFINESQUE GUILLAUME MSE 2   00:19:00 15,8 2
3 337 NIZARD ANTHONY MMI 1   00:19:35 15,3 3
4 362 TAILHADES DIDIER MV1 1 KINE COURSE 00:19:48 15,1 4
5 251 CHAPEAU BASTIEN MMI 2   00:20:06 14,9 5
6 247 CARTIER CHRISTIAN MV1 2 BEAUMONT ATHLETIQUE CLUB 00:20:14 14,8 6
7 352 RUEDAS REMI MCA 1   00:20:25 14,7 7
8 209 PORTES CEDRIC MMI 3 Montpellier Agglo Triathlon 00:20:36 14,6 8
9 377 FAURE LOUIS MJU 1 BAC BEAUMONT 00:20:47 14,4 9
10 320 MARCOT ROBIN MMI 4 JSP 00:20:53 14,4 10
11 219 AUFSCHNEIDER ERIC MV1 3 bipede de la vaunage 00:20:55 14,3 11
12 375 ZARAGOZA ANTHONY MMI 5   00:21:11 14,2 12
13 232 BILARD ABDELSSLEM MV1 4   00:21:26 14,0 13
14 254 CHAUDESAYGUES ERIC MV1 5 CS BOURGOIN JALLIEU 00:21:38 13,9 14
15 334 MORGANA LEO MCA 2   00:21:42 13,8 15
16 229 BESSE BAPTISTE MCA 3 JSP 00:21:43 13,8 16
17 354 SANCHEZ BENJAMIN MMI 6 JSP 00:21:44 13,8 17
18 214 ARDIN PATRICK MV1 6 SOMMIERES ATHLETISME 00:21:49 13,7 18
19 256 CLAVEL QUENTIN MMI 7   00:21:51 13,7 19
20 243 CAMBA FABIEN MV1 7   00:22:01 13,6 20
21 357 SANTAMARIA JEAN-BAPTISTE MV2 1   00:22:02 13,6 21
22 363 TAILHADES ROMAIN MES 1   00:22:13 13,5 22
23 340 PELLICIER CORENTIN MCA 4 JSP 00:22:15 13,5 23
24 306 JUVE BERNARD MV2 2 KINE COURSE 00:22:22 13,4 24
25 230 BIAU GUILHEM MCA 5 JSP 00:22:26 13,4 25
26 223 BATTAGLIA FRANCK MSE 3   00:22:30 13,3 26
27 328 MERCIER BENOIT MSE 4 LE BOL D'AIR GIGNACOIS 00:22:40 13,2 27
28 314 LEFORT JÉROME MSE 5 JSP 00:22:45 13,2 28
29 248 CASTANIER LUC MMI 8 groupama 00:22:49 13,1 29
30 212 AMALVY LOIC MCA 6   00:22:54 13,1 30
31 336 MOUGIN PIERRE MMI 9 JSP 00:23:18 12,9 31
32 281 FROGE YANN MV1 8 JSP 00:23:25 12,8 32
33 358 SARDIN JEREMY MCA 7 JSP 00:23:44 12,6 33
34 274 DI CRESCENDO MARC ALEX MCA 8   00:23:55 12,5 34
35 311 LAURENT ADRIEN MMI 10   00:23:57 12,5 35
36 260 CONEVA QUENTIN MCA 9 JSP 00:23:59 12,5 36
37 249 CAUVAS MATHIEU MCA 10 KINE COURSE 00:24:05 12,4 37
38 257 COLLIN JAN-LOU MV1 9 JSP 00:24:10 12,4 38
39 231 BIBENT GREGORY MMI 11   00:24:11 12,4 39
40 308 LACRAMPE NICOLAS MCA 11   00:24:17 12,3 40
41 235 BONNET NADINE FV1 1 bipedes vaunage 00:24:27 12,3 1
42 386 REZEPKA ARTHUR MMI 12 JSP 00:24:33 12,2 41
43 295 GUEDJ ROBIN MMI 13   00:24:38 12,2 42
44 265 COUDREY THEO MCA 12 JSP 00:24:39 12,2 43
45 327 MAYNADIER ROMAIN MCA 13 JSP 00:24:40 12,2 44
46 244 CANALE VALENTIN MMI 14 MAIRIE SOMMIERES 00:24:59 12,0 45
47 262 CORTES MAXENCE MMI 15   00:25:19 11,8 46
48 367 TORTOSA SABINE FV1 2   00:25:20 11,8 2
49 276 EVRARD ANTHONY MMI 16   00:25:26 11,8 47
50 220 AUTIN PIERRE YVES MMI 17 VEO 2000 00:25:29 11,8 48
51 300 HUGOT DIDIER MV3 1   00:25:30 11,8 49
52 218 AUBRY ALEXIS MMI 18   00:25:42 11,7 50
53 289 GESQUIERE VINCENT MMI 19   00:25:46 11,6 51
54 324 MARTINEZ JULIEN MMI 20   00:25:54 11,6 52
55 227 BERNARD MELANIE FMI 1 VEO 2000 00:25:58 11,6 3
56 238 BOTTEX GUILLAUME MCA 14   00:25:59 11,5 53
57 210 BOY WILLIAM MMI 21 BAC 00:26:05 11,5 54
58 369 URVOY DYLAN MMI 22   00:26:09 11,5 55
59 299 GUYOT LAURINE FCA 1   00:26:20 11,4 4
60 343 PIRO CLEMENT MMI 23   00:26:41 11,2 56
61 267 COURDOUAN JEREMY MMI 24   00:26:46 11,2 57
62 322 MARITATO GREGORY MMI 25   00:26:51 11,2 58
63 366 TORRES ALEXIS MMI 26   00:26:51 11,2 59
64 273 DEZAN RAPHAEL MMI 27   00:26:53 11,2 60
65 384 DARANCY CARINE   1   00:26:56 11,1 5
66 263 CORVAISIER PIERRICK MMI 28 les foulées saussinoises 00:26:57 11,1 61
67 272 DELMAS JULIEN MMI 29 JSP 00:27:04 11,1 62
68 345 PLAGNIOL THOMAS MMI 30 WAIMEA TRI LUNEL 00:27:10 11,0 63
69 346 PRADEILLES EMMANUEL MJU 2 SCAC 00:27:13 11,0 64
70 213 AMOUROUX CORENTIN MMI 31   00:27:14 11,0 65
71 348 RANDON CHRISTOPHE FV1 3 JSP 00:27:21 11,0 6
72 205 VUAGNOUX LEA FMI 2   00:27:24 10,9 7
73 245 CANUEL LUCAS MCA 15 JSP 00:27:41 10,8 66
74 315 LEPORCQ SEBASTIEN MMI 32 JSP 00:27:51 10,8 67
75 277 FABRE CHRISTOPHE MMI 33   00:27:53 10,8 68
76 376 FAURE PHILIPPE MV2 3 JSP 00:27:56 10,7 69
77 323 MARNAT CLEMENT MMI 34   00:28:31 10,5 70
78 361 SORTON TONY MMI 35 JSP 00:28:44 10,4 71
79 319 MAEBARKIA INES FMI 3   00:28:46 10,4 8
80 222 BALAGUE JEROME MCA 16 JSP 00:28:53 10,4 72
81 310 LAMARRE ANDREW MCA 17 JSP 00:28:54 10,4 73
82 287 GAUTIE SYLVAIN MMI 36   00:28:56 10,4 74
83 253 CHASSAGNE LUCAS MMI 37 BAC 00:29:00 10,3 75
84 331 MILLE ALEXIA FMI 4 JSP 00:29:00 10,3 9
85 261 CORTES PHILIPPE MV2 4   00:29:03 10,3 76
86 250 CHANSON THEO MCA 18   00:29:04 10,3 77
87 278 FREYCHET PIERRE MMI 38 les foulee saussinoises 00:29:06 10,3 78
88 294 GROSSI SANDRINE FSE 1   00:29:19 10,2 10
89 291 GIFFARD GREGORY MMI 39   00:29:22 10,2 79
90 312 LE THOMAS JEAN CLAUDE MV4 1   00:29:28 10,2 80
91 234 BONNET CHRISTINE FV1 4 JSP 00:29:33 10,1 11
92 233 BLONDIN JULIEN MCA 19 JSP 00:29:39 10,1 81
93 240 BUISSON LEO MCA 20   00:29:39 10,1 82
94 283 GAGNE ALEXIA FMI 5   00:29:46 10,1 12
95 350 ROBERT JULIEN MCA 21   00:30:22 9,9 83
96 372 VIZCARRO MARJORIE FJU 1 CROCO D AIRAIN 00:30:22 9,9 13
97 301 JOLY PHILIPPE MV2 5 JSP 00:30:58 9,7 84
98 390 GENEZY JACQUES MV2 6 JSP 00:31:29 9,5 85
99 344 PIZANO LUC MV1 10   00:31:35 9,5 86
100 292 GILLES BAPTISTE MMI 40 JSP 00:31:37 9,5 87
101 317 LIMA FREDDY MSE 6   00:31:43 9,5 88
102 252 CHARNEAU ALEXANDRE MMI 41 JSP 00:31:45 9,4 89
103 339 PAUC SÉBASTIEN MSE 7 JSP 00:31:47 9,4 90
104 330 MICHELUTTI STÉPHANE MSE 8 JSP 00:31:52 9,4 91
105 258 COLLIN ANNIE FV1 5   00:32:02 9,4 14
106 359 SEPULCRE GREGORY MES 2   00:32:09 9,3 92
107 241 CADILHAC MICHEL MV2 7   00:32:30 9,2 93
108 266 COUETTE FRANÇOIS MV2 8   00:32:45 9,2 94
109 338 PARQUET ESTELLE FJU 2 JSP 00:32:49 9,1 15
110 204 CONORT MARIE FV2 1 JSP 00:32:49 9,1 16
111 353 RUIZ OPHELIE FMI 6   00:32:50 9,1 17
112 270 DELAMARE DAVID MSE 9 BOL D'AIR GIGNACOIS 00:32:52 9,1 95
113 332 MONTHUY GERARD MV2 9 BAC 00:32:59 9,1 96
114 333 MONTHUY ANNE MARIE FV2 2 JSP 00:32:59 9,1 18
115 228 BESSE DAVID MV1 11 JSP 00:33:02 9,1 97
116 321 MARIN HELENE FV1 6 JSP 00:33:05 9,1 19
117 304 JONQUET CLAUDINE FV1 7   00:33:13 9,0 20
118 303 JONQUET THIERRY MV1 12 JSP 00:33:14 9,0 98
119 382 REBOUL HELENE   2   00:33:15 9,0 21
120 349 RAYNAL VÉRONIQUE FV1 8 JSP 00:33:17 9,0 22
121 360 SERVIERE BEATRICE FV2 3   00:33:21 9,0 23
122 302 JONES CLAIRE FV1 9 JSP 00:33:42 8,9 24
123 237 BORING ALINE FSE 2 KINE COURSE 00:33:52 8,9 25
124 236 BORING ERIC MV1 13 ACA 00:33:52 8,9 99
125 388 GENEZY AGNES   3   00:33:52 8,9 26
126 206 LAVIGNE FRANCOISE FV3 1 JSP 00:33:53 8,9 27
127 207 FRANÇOIS BÉNÉDICTE FV1 10 JSP 00:34:09 8,8 28
128 305 JULLIEN CHRISTIANE FV2 4   00:34:16 8,8 29
129 288 GENNAI FLORENCE FV1 11   00:34:42 8,6 30
130 370 VALETTE NICOLAS MV1 14 JSP 00:34:48 8,6 100
131 215 ARNAUD EMMA FES 1   00:34:52 8,6 31
132 221 AUZILHON GERALDINE FSE 3 JSP 00:34:53 8,6 32
133 201 RAYMOND GHISLAINE FV1 12 JSP 00:34:54 8,6 33
134 203 GESTA ANNE MARIE FV3 2   00:34:55 8,6 34
135 296 GUILLERM MICHÈLE FSE 4   00:35:07 8,5 35
136 309 LACROIX KATHARINA FMI 7   00:35:17 8,5 36
137 297 GUILLOUZO ANDRÉ MV1 15   00:35:21 8,5 101
138 351 ROGER GENNAI MV2 10 JSP 00:35:23 8,5 102
139 242 CADILHAC MARIE FSE 5   00:35:54 8,4 37
140 378 PEREZ SEBASTIEN MSE 10 JSP 00:36:07 8,3 103
141 379 MIOLAN GHYSLAINE   4   00:36:08 8,3 38
142 364 TANGUY ISABELLE FSE 6   00:36:09 8,3 39
143 347 QUISSAC CECILE FSE 7 JSP 00:36:26 8,2 40
144 329 METAIS CAROLINE FV1 13   00:36:27 8,2 41
145 269 DARDE ANTOINE MV1 16   00:36:29 8,2 104
146 255 CHAUDESAYGUES OLIVIER MV1 17 Latitude VTT. 00:36:29 8,2 105
147 225 BEJAOUI CHRISTELLE FSE 8 JSP 00:36:31 8,2 42
148 326 MAURY ANDRE MV4 2   00:36:32 8,2 106
149 224 BEJAOUI SAMIR MSE 11 JSP 00:36:32 8,2 107
150 293 GOUEL CATHERINE FSE 9 JSP 00:37:05 8,1 43
151 211 ALLIEZ CAMILLE FSE 10   00:37:19 8,0 44
152 284 GALIBERT STEPHANE MMI 42   00:37:32 8,0 108
153 371 VAN WIERINGEN TON MV3 2 JSP 00:38:27 7,8 109
154 385 SAVIN ILLYA   5   00:38:49 7,7 45
155 279 FREYCHET ANTOINE MMI 43 croco d airain 00:38:49 7,7 110
156 286 GARCIA VÉRONIQUE FV1 14   00:39:00 7,7 46
157 368 TREMOULET ADRIEN MES 3   00:39:27 7,6 111
158 239 BRUGIERE MARTINE FV2 5   00:39:35 7,6 47
159 264 COTENCIN ERIC MSE 12   00:39:41 7,6 112
160 318 LIZE DELPHINE FSE 11   00:40:41 7,4 48
161 365 TARDIEU NATHALIE FSE 12 JSP 00:40:41 7,4 49
162 342 PHARISIER BERNARD MV3 3 JSP 00:40:43 7,4 113
163 389 PELOSO EMMANUELLE   6 triathlon club la grande motte 00:42:51 7,0 50
164 387 SENEGAS AMANDINE   7 JSP 00:42:51 7,0 51
165 335 MOSNIER MARIE-FRANCE FV2 6   00:45:08 6,6 52
166 216 ARRIGONI ANNE-CHARLOTTE FES 2   00:47:55 6,3 53
167 290 GESQUIERE MURIEL FV1 15   00:48:02 6,2 54
168 217 ARRIGONI LEA FJU 3 JSP 00:49:38 6,0 55